Time;durP1;ratioP1;P1;durP2;ratioP2;P2;SDS_P1;SDS_P2;PMS_P1;PMS_P2;Temp;Humidity;BMP_temperature;BMP_pressure;BME280_temperature;BME280_humidity;BME280_pressure;Samples;Min_cycle;Max_cycle;Signal;HPM_P1;HPM_P2
2023/10/03 00:02:18;;;;;;;25.33;8.35;;;;;;;27.90;46.59;100991.56;5031044;28;20021;-69
2023/10/03 00:04:44;;;;;;;23.33;7.32;;;;;;;28.11;46.11;100982.75;5029800;28;20397;-69
2023/10/03 00:07:09;;;;;;;27.17;7.05;;;;;;;28.02;45.92;100983.50;5014390;28;20769;-69
2023/10/03 00:09:35;;;;;;;20.70;7.20;;;;;;;27.73;46.12;100978.63;5031889;28;20026;-69
2023/10/03 00:12:01;;;;;;;24.55;7.65;;;;;;;27.53;47.07;100977.53;5032337;28;20036;-69
2023/10/03 00:14:26;;;;;;;27.67;8.40;;;;;;;27.26;47.24;100973.38;5031313;28;20029;-70
2023/10/03 00:16:52;;;;;;;23.15;6.90;;;;;;;27.66;47.04;100972.06;5032555;28;20025;-69
2023/10/03 00:19:17;;;;;;;25.98;7.65;;;;;;;27.87;45.94;100964.94;5015427;28;20034;-70
2023/10/03 00:21:43;;;;;;;25.08;7.72;;;;;;;28.02;45.59;100965.53;5013586;28;20025;-69
2023/10/03 00:24:08;;;;;;;26.90;7.55;;;;;;;27.54;46.77;100957.78;5032567;28;20050;-69
2023/10/03 00:26:34;;;;;;;18.90;6.85;;;;;;;27.68;46.36;100954.81;5010586;28;20064;-69
2023/10/03 00:28:59;;;;;;;26.13;8.35;;;;;;;27.52;46.74;100949.84;5028316;28;20040;-69
2023/10/03 00:31:25;;;;;;;27.10;8.55;;;;;;;27.50;47.09;100950.94;5031647;28;20021;-69
2023/10/03 00:33:50;;;;;;;30.42;8.23;;;;;;;27.53;46.37;100946.19;5014114;28;20083;-69
2023/10/03 00:36:24;;;;;;;27.17;8.55;;;;;;;27.37;46.96;100946.56;5013224;28;20124;-69
2023/10/03 00:38:53;;;;;;;24.02;7.20;;;;;;;27.51;46.51;100948.13;5030572;28;20044;-69
2023/10/03 00:41:19;;;;;;;22.35;7.57;;;;;;;27.16;47.17;100938.34;5014950;28;20049;-69
2023/10/03 00:43:56;;;;;;;25.55;7.15;;;;;;;27.21;47.07;100936.16;5002929;28;20022;-70
2023/10/03 00:46:22;;;;;;;25.70;8.27;;;;;;;27.70;45.83;100930.56;5012863;28;20030;-70
2023/10/03 00:48:47;;;;;;;23.50;6.75;;;;;;;27.63;46.45;100924.84;5022331;28;20876;-69
2023/10/03 00:51:15;;;;;;;28.77;8.40;;;;;;;27.86;45.50;100914.91;5024458;28;20611;-70
2023/10/03 00:53:43;;;;;;;25.30;7.78;;;;;;;27.24;47.29;100911.78;5020610;28;20031;-70
2023/10/03 00:56:09;;;;;;;27.48;7.85;;;;;;;27.42;46.76;100916.66;5030064;28;20031;-69
2023/10/03 00:58:36;;;;;;;28.58;8.07;;;;;;;26.83;48.43;100902.47;5031452;28;20136;-68
2023/10/03 01:01:03;;;;;;;27.15;7.43;;;;;;;26.80;48.17;100910.75;5029976;28;20160;-69
2023/10/03 01:03:37;;;;;;;21.95;7.95;;;;;;;26.80;48.51;100889.28;5012943;28;20481;-69
2023/10/03 01:06:11;;;;;;;28.83;8.10;;;;;;;26.51;48.99;100886.16;5029722;28;20025;-69
2023/10/03 01:08:38;;;;;;;26.95;7.97;;;;;;;27.09;48.01;100883.47;5031813;28;20033;-69
2023/10/03 01:11:15;;;;;;;22.30;7.75;;;;;;;27.31;47.48;100873.72;5030196;28;20485;-69
2023/10/03 01:13:41;;;;;;;28.05;8.30;;;;;;;26.71;48.30;100866.75;5013272;28;20033;-69
2023/10/03 01:16:07;;;;;;;24.02;7.75;;;;;;;26.55;48.91;100872.41;5029785;28;20047;-69
2023/10/03 01:18:37;;;;;;;23.27;6.78;;;;;;;26.88;48.40;100859.22;5011770;28;20025;-69
2023/10/03 01:21:05;;;;;;;23.88;7.72;;;;;;;26.75;48.57;100848.59;5012968;28;20416;-69
2023/10/03 01:23:39;;;;;;;27.88;8.77;;;;;;;26.80;48.40;100848.22;5027108;28;20513;-69
2023/10/03 01:26:07;;;;;;;24.85;8.15;;;;;;;26.88;48.62;100859.22;5028962;28;20144;-69
2023/10/03 01:28:34;;;;;;;28.73;8.35;;;;;;;26.29;50.01;100868.19;5031168;28;20018;-69
2023/10/03 01:31:00;;;;;;;23.67;7.90;;;;;;;26.16;50.10;100863.78;5025411;28;20038;-69
2023/10/03 01:33:28;;;;;;;23.48;7.50;;;;;;;25.61;51.72;100859.78;5027926;28;20076;-68
2023/10/03 01:35:54;;;;;;;21.17;7.75;;;;;;;26.20;50.35;100843.81;5011829;28;20485;-69
2023/10/03 01:38:20;;;;;;;22.90;8.02;;;;;;;25.79;51.18;100854.91;5031160;28;20025;-69
2023/10/03 01:40:51;;;;;;;23.00;7.22;;;;;;;26.07;50.64;100859.94;5013771;28;20049;-68
2023/10/03 01:43:16;;;;;;;24.83;6.97;;;;;;;26.00;50.81;100849.78;5030889;28;20473;-69
2023/10/03 01:45:41;;;;;;;22.85;7.28;;;;;;;26.51;49.24;100846.81;5028306;28;20079;-68
2023/10/03 01:48:07;;;;;;;24.17;6.80;;;;;;;26.07;50.48;100851.91;5009593;28;20040;-68
2023/10/03 01:50:35;;;;;;;22.55;6.72;;;;;;;26.65;49.04;100856.44;5029451;28;20026;-69
2023/10/03 01:53:02;;;;;;;22.25;7.65;;;;;;;26.26;50.18;100849.69;5028126;28;20025;-69
2023/10/03 01:55:28;;;;;;;27.00;7.95;;;;;;;26.74;48.57;100847.72;5013816;28;20028;-69
2023/10/03 01:57:54;;;;;;;20.17;6.32;;;;;;;26.57;49.12;100851.72;5012961;28;20389;-69
2023/10/03 02:00:26;;;;;;;18.75;6.45;;;;;;;26.23;50.17;100851.59;5011272;28;20029;-69
2023/10/03 02:03:13;;;;;;;21.77;6.70;;;;;;;26.30;50.36;100830.56;5010266;28;20037;-68
2023/10/03 02:05:43;;;;;;;19.05;6.55;;;;;;;27.11;48.32;100830.56;5031416;28;20027;-69
2023/10/03 02:08:15;;;;;;;20.20;6.00;;;;;;;27.24;47.62;100823.25;5029239;28;20033;-68
2023/10/03 02:10:41;;;;;;;17.55;5.63;;;;;;;26.79;48.91;100825.94;5029036;28;20029;-69
2023/10/03 02:13:11;;;;;;;20.60;5.80;;;;;;;26.59;49.62;100828.31;5009179;28;20030;-68
2023/10/03 02:15:38;;;;;;;16.08;5.47;;;;;;;25.37;52.34;100823.16;4993537;28;20050;-68
2023/10/03 02:18:05;;;;;;;18.83;5.40;;;;;;;27.27;48.31;100816.75;5010735;28;20025;-69
2023/10/03 02:20:38;;;;;;;17.02;5.75;;;;;;;26.80;49.44;100818.75;5018430;28;20112;-68
2023/10/03 02:23:05;;;;;;;21.65;5.63;;;;;;;26.74;49.73;100817.41;5011409;28;20033;-68
2023/10/03 02:25:36;;;;;;;17.50;5.55;;;;;;;26.99;49.76;100808.25;5029019;28;20032;-69
2023/10/03 02:28:02;;;;;;;18.65;5.10;;;;;;;26.23;51.33;100803.41;5027778;28;20393;-69
2023/10/03 02:30:29;;;;;;;20.33;5.35;;;;;;;26.29;51.15;100787.84;5030587;28;20037;-69
2023/10/03 02:32:57;;;;;;;18.98;5.63;;;;;;;26.86;49.39;100792.31;5029801;28;20025;-69
2023/10/03 02:35:24;;;;;;;20.67;6.43;;;;;;;26.59;50.41;100790.78;5028893;28;20030;-68
2023/10/03 02:37:58;;;;;;;18.83;5.85;;;;;;;27.12;49.70;100791.16;5012124;28;20432;-69
2023/10/03 02:40:28;;;;;;;14.70;5.07;;;;;;;26.53;51.23;100799.31;5026745;28;20160;-68
2023/10/03 02:42:54;;;;;;;16.35;6.50;;;;;;;27.24;49.23;100796.41;5024032;28;20438;-69
2023/10/03 02:45:25;;;;;;;18.80;5.75;;;;;;;27.48;49.22;100803.47;5021754;28;20032;-69
2023/10/03 02:47:53;;;;;;;14.93;4.88;;;;;;;26.47;51.33;100799.78;4992644;28;20030;-68
2023/10/03 02:50:19;;;;;;;16.05;5.05;;;;;;;25.36;53.51;100806.28;4992850;28;20025;-68
2023/10/03 02:52:47;;;;;;;16.83;4.90;;;;;;;25.84;52.94;100808.13;5009127;28;20026;-68
2023/10/03 02:55:14;;;;;;;15.82;4.32;;;;;;;26.79;50.45;100817.03;5017197;28;20070;-69
2023/10/03 02:57:40;;;;;;;13.18;5.05;;;;;;;26.26;51.43;100820.22;5009000;28;20040;-69
2023/10/03 03:00:14;;;;;;;14.50;4.70;;;;;;;26.63;51.33;100822.72;5008339;28;20025;-68
2023/10/03 03:02:46;;;;;;;15.93;4.82;;;;;;;26.04;52.11;100830.72;5006737;28;20073;-69
2023/10/03 03:05:16;;;;;;;12.93;4.50;;;;;;;26.45;51.82;100817.81;5023127;28;20037;-69
2023/10/03 03:07:46;;;;;;;10.98;3.53;;;;;;;26.50;51.27;100812.09;5028576;28;20116;-69
2023/10/03 03:10:14;;;;;;;9.45;3.80;;;;;;;26.70;50.89;100823.97;5010669;28;20106;-69
2023/10/03 03:12:43;;;;;;;10.45;3.58;;;;;;;26.17;51.79;100822.63;5027870;28;20109;-69
2023/10/03 03:15:22;;;;;;;8.63;3.30;;;;;;;25.52;53.38;100827.38;5011748;28;20425;-69
2023/10/03 03:17:48;;;;;;;10.93;4.25;;;;;;;25.70;53.01;100835.03;5011190;28;20022;-69
2023/10/03 03:20:27;;;;;;;8.18;2.67;;;;;;;25.19;55.21;100820.81;5011800;28;20094;-69
2023/10/03 03:22:53;;;;;;;9.18;2.53;;;;;;;25.76;54.26;100839.94;5025431;28;20151;-68
2023/10/03 03:25:35;;;;;;;11.77;2.92;;;;;;;25.20;56.44;100838.56;5010346;28;20029;-69
2023/10/03 03:28:00;;;;;;;7.80;2.60;;;;;;;26.01;54.31;100832.75;5029477;28;20026;-69
2023/10/03 03:32:57;;;;;;;9.50;2.88;;;;;;;25.67;56.57;100848.66;5009571;28;20037;-69
2023/10/03 03:35:24;;;;;;;11.50;3.67;;;;;;;25.09;58.78;100854.53;5025466;28;20021;-69
2023/10/03 03:37:56;;;;;;;8.50;3.33;;;;;;;25.07;58.99;100859.13;5028280;28;20095;-68
2023/10/03 03:40:34;;;;;;;12.18;3.17;;;;;;;25.74;56.48;100852.56;5012050;28;20120;-68
2023/10/03 03:43:03;;;;;;;11.25;3.78;;;;;;;24.40;62.42;100865.50;5023111;28;20498;-68
2023/10/03 03:45:28;;;;;;;11.10;2.90;;;;;;;24.60;61.63;100865.97;5009395;28;20029;-68
2023/10/03 03:47:57;;;;;;;8.13;3.10;;;;;;;25.53;58.32;100855.88;5009283;28;20497;-69
2023/10/03 03:50:23;;;;;;;13.05;2.95;;;;;;;25.03;59.53;100847.81;4995143;28;20116;-68
2023/10/03 03:52:49;;;;;;;9.15;3.20;;;;;;;24.87;62.00;100858.72;5006984;28;20164;-69
2023/10/03 03:55:16;;;;;;;8.77;3.28;;;;;;;25.72;58.77;100860.72;5022098;28;20022;-69
2023/10/03 03:57:42;;;;;;;10.25;3.05;;;;;;;24.59;62.42;100869.59;5011775;28;20018;-69
2023/10/03 04:00:20;;;;;;;9.32;3.63;;;;;;;24.98;61.83;100855.31;5010639;28;20041;-69
2023/10/03 04:02:48;;;;;;;14.45;3.42;;;;;;;25.57;59.81;100846.66;5006792;28;20551;-69
2023/10/03 04:05:16;;;;;;;12.65;3.00;;;;;;;25.54;58.52;100862.94;5014152;28;20026;-69
2023/10/03 04:07:42;;;;;;;13.48;3.30;;;;;;;24.44;62.49;100856.34;5028224;28;20030;-69
2023/10/03 04:10:12;;;;;;;9.52;3.35;;;;;;;25.84;58.51;100864.31;5027626;28;20342;-69
2023/10/03 04:12:44;;;;;;;14.13;3.25;;;;;;;24.80;61.73;100856.56;5006993;28;20029;-69
2023/10/03 04:15:12;;;;;;;10.98;3.08;;;;;;;24.87;61.32;100864.06;5017884;28;20040;-69
2023/10/03 04:17:38;;;;;;;6.00;2.33;;;;;;;25.19;60.27;100874.31;5024189;28;20108;-68
2023/10/03 04:20:23;;;;;;;12.73;2.80;;;;;;;25.40;57.76;100873.75;5012498;28;20033;-69
2023/10/03 04:22:50;;;;;;;10.18;3.13;;;;;;;24.58;60.11;100862.53;5028696;28;20040;-69
2023/10/03 04:25:20;;;;;;;8.13;2.53;;;;;;;24.86;59.16;100862.34;5027333;28;20414;-69
2023/10/03 04:27:49;;;;;;;7.25;3.20;;;;;;;23.90;61.77;100872.41;5028551;28;20485;-68
2023/10/03 04:30:16;;;;;;;14.65;3.53;;;;;;;24.60;58.98;100858.78;5010330;28;20036;-69
2023/10/03 04:32:42;;;;;;;11.65;3.45;;;;;;;25.13;58.52;100861.38;5028795;28;20374;-68
2023/10/03 04:35:12;;;;;;;10.10;2.80;;;;;;;24.38;58.77;100856.72;5012522;28;20022;-68
2023/10/03 04:37:39;;;;;;;3.67;2.03;;;;;;;25.31;55.69;100855.69;5032954;28;20026;-69
2023/10/03 04:40:06;;;;;;;6.72;2.80;;;;;;;24.01;58.86;100859.22;5014663;28;20112;-68
2023/10/03 04:42:32;;;;;;;3.47;1.83;;;;;;;23.58;59.75;100867.31;5013288;28;20033;-69
2023/10/03 04:44:58;;;;;;;7.65;2.17;;;;;;;24.76;56.43;100866.66;5009761;28;20075;-69
2023/10/03 04:47:27;;;;;;;8.23;2.53;;;;;;;24.64;55.90;100872.84;5026482;28;20083;-69
2023/10/03 04:49:52;;;;;;;4.72;1.95;;;;;;;24.81;56.02;100869.84;5031539;28;20021;-68
2023/10/03 04:52:17;;;;;;;7.20;2.35;;;;;;;25.54;54.96;100868.28;5013280;28;20481;-68
2023/10/03 04:54:43;;;;;;;5.78;2.15;;;;;;;25.24;55.22;100872.16;5031129;28;20036;-70
2023/10/03 04:57:08;;;;;;;5.63;1.92;;;;;;;23.68;59.53;100873.75;5013586;28;20119;-69
2023/10/03 04:59:33;;;;;;;4.43;2.15;;;;;;;23.82;58.86;100900.44;5030022;28;20040;-68
2023/10/03 05:02:01;;;;;;;8.32;1.98;;;;;;;24.38;58.04;100886.97;5027088;28;20064;-68
2023/10/03 05:04:26;;;;;;;6.18;2.63;;;;;;;25.12;55.92;100899.78;5029920;28;20022;-68
2023/10/03 05:06:52;;;;;;;6.05;2.60;;;;;;;24.56;58.17;100897.38;5028151;28;20385;-71
2023/10/03 05:09:17;;;;;;;4.82;1.90;;;;;;;24.78;57.59;100883.41;5030094;28;20025;-70
2023/10/03 05:11:43;;;;;;;7.05;2.50;;;;;;;24.36;59.33;100896.06;5024685;28;20026;-68
2023/10/03 05:14:09;;;;;;;5.78;2.05;;;;;;;24.96;56.81;100888.44;5030696;28;20030;-69
2023/10/03 05:16:35;;;;;;;4.60;1.80;;;;;;;24.63;56.84;100887.16;5027676;28;20025;-70
2023/10/03 05:19:00;;;;;;;8.70;2.30;;;;;;;25.13;56.48;100896.16;5026947;28;20040;-69
2023/10/03 05:21:26;;;;;;;7.72;2.17;;;;;;;24.36;58.59;100888.06;5010518;28;20113;-70
2023/10/03 05:23:52;;;;;;;8.77;2.30;;;;;;;24.50;58.87;100882.63;5023943;28;20033;-69
2023/10/03 05:26:24;;;;;;;5.10;2.20;;;;;;;24.49;58.28;100880.91;5011243;28;20431;-69
2023/10/03 05:28:55;;;;;;;7.40;2.20;;;;;;;24.31;59.48;100900.84;5030409;28;20509;-69
2023/10/03 05:31:22;;;;;;;9.82;2.20;;;;;;;24.29;59.29;100900.97;5008385;28;20063;-69
2023/10/03 05:33:48;;;;;;;6.50;2.53;;;;;;;24.27;59.13;100886.84;5031001;28;20509;-70
2023/10/03 05:36:16;;;;;;;5.47;2.17;;;;;;;25.13;56.24;100920.22;5013611;28;20037;-70
2023/10/03 05:38:42;;;;;;;8.07;1.80;;;;;;;24.48;57.77;100908.59;5029455;28;20028;-70
2023/10/03 05:41:24;;;;;;;4.00;1.80;;;;;;;25.60;54.58;100899.09;5026605;28;20079;-70
2023/10/03 05:43:50;;;;;;;6.18;2.15;;;;;;;24.72;56.13;100913.25;5013210;28;20120;-70
2023/10/03 05:46:16;;;;;;;6.13;1.92;;;;;;;24.43;57.15;100918.72;5004756;28;20141;-70
2023/10/03 05:48:43;;;;;;;6.03;1.77;;;;;;;24.85;56.52;100919.47;5006548;28;20021;-70
2023/10/03 05:51:08;;;;;;;5.43;1.88;;;;;;;23.59;61.38;100927.69;5011781;28;20021;-70
2023/10/03 05:53:34;;;;;;;2.63;2.15;;;;;;;24.21;59.52;100935.31;5031045;28;20079;-70
2023/10/03 05:56:00;;;;;;;8.10;1.80;;;;;;;24.36;60.34;100944.97;5029237;28;20504;-69
2023/10/03 05:58:27;;;;;;;7.70;2.38;;;;;;;24.11;60.56;100950.22;5011700;28;20021;-70
2023/10/03 06:00:52;;;;;;;3.92;1.30;;;;;;;24.50;60.02;100946.72;5028774;28;20477;-70
2023/10/03 06:03:17;;;;;;;10.10;1.83;;;;;;;23.95;61.45;100945.03;5029871;28;20070;-69
2023/10/03 06:05:43;;;;;;;6.68;1.27;;;;;;;24.34;59.00;100948.72;5012963;28;20478;-70
2023/10/03 06:08:12;;;;;;;5.35;2.03;;;;;;;23.65;62.07;100948.69;5029456;28;20022;-70
2023/10/03 06:10:39;;;;;;;4.70;1.20;;;;;;;24.78;57.13;100950.22;5013312;28;20056;-69
2023/10/03 06:13:10;;;;;;;4.80;1.23;;;;;;;24.46;58.29;100955.91;5012464;28;20497;-69
2023/10/03 06:15:37;;;;;;;5.38;1.35;;;;;;;24.06;60.11;100953.19;5029550;28;20045;-70
2023/10/03 06:18:04;;;;;;;1.63;0.80;;;;;;;24.64;56.41;100969.03;5011792;28;20036;-69
2023/10/03 06:20:30;;;;;;;4.13;0.82;;;;;;;23.49;59.42;100992.31;5009259;28;20045;-68
2023/10/03 06:22:56;;;;;;;1.73;0.80;;;;;;;24.18;57.41;100984.44;5009177;28;20083;-69
2023/10/03 06:25:21;;;;;;;1.73;1.02;;;;;;;24.18;56.57;101005.81;5009698;28;20026;-70
2023/10/03 06:27:47;;;;;;;2.03;1.05;;;;;;;24.99;54.69;101000.50;5009113;28;20113;-69
2023/10/03 06:30:14;;;;;;;5.53;0.93;;;;;;;23.02;60.95;101004.03;5010727;28;20030;-69
2023/10/03 06:32:39;;;;;;;2.05;0.88;;;;;;;24.69;55.21;100999.81;5010958;28;20018;-69
2023/10/03 06:35:06;;;;;;;4.30;0.80;;;;;;;24.47;55.62;101018.19;4992532;28;20056;-69
2023/10/03 06:37:34;;;;;;;5.03;0.90;;;;;;;24.18;56.66;101011.16;5006406;28;20121;-69
2023/10/03 06:40:00;;;;;;;3.83;1.00;;;;;;;23.79;59.15;101004.69;5028558;28;20025;-69
2023/10/03 06:42:26;;;;;;;4.13;0.90;;;;;;;24.82;55.46;100988.31;5030068;28;20083;-70
2023/10/03 06:44:52;;;;;;;1.60;0.73;;;;;;;24.27;57.87;100998.16;5029917;28;20018;-71
2023/10/03 06:47:20;;;;;;;5.18;1.05;;;;;;;24.60;55.79;101005.75;5030061;28;20041;-69
2023/10/03 06:49:45;;;;;;;2.83;0.93;;;;;;;24.40;57.08;101015.09;5012587;28;20477;-70
2023/10/03 06:52:11;;;;;;;7.45;1.27;;;;;;;24.03;59.82;101025.47;5030098;28;20116;-70
2023/10/03 06:54:36;;;;;;;16.00;1.65;;;;;;;23.64;63.49;101038.50;5029517;28;20038;-69
2023/10/03 06:57:03;;;;;;;4.75;0.80;;;;;;;23.82;64.77;101068.56;5026777;28;20025;-70
2023/10/03 06:59:29;;;;;;;3.42;1.00;;;;;;;23.87;64.85;101070.94;5030076;28;20029;-69
2023/10/03 07:01:54;;;;;;;6.57;1.23;;;;;;;24.22;64.58;101068.72;5011267;28;20032;-71
2023/10/03 07:04:20;;;;;;;4.18;0.95;;;;;;;23.21;70.52;101084.66;5012356;28;20409;-71
2023/10/03 07:06:45;;;;;;;3.40;1.13;;;;;;;23.50;68.88;101089.19;5030213;28;20037;-71
2023/10/03 07:09:11;;;;;;;5.95;1.02;;;;;;;24.55;63.12;101091.56;5028983;28;20104;-71
2023/10/03 07:11:37;;;;;;;2.80;0.90;;;;;;;23.36;68.72;101098.03;5012275;28;20474;-70
2023/10/03 07:14:02;;;;;;;6.10;1.00;;;;;;;23.98;64.99;101094.31;5029075;28;20076;-70
2023/10/03 07:16:36;;;;;;;2.83;1.00;;;;;;;24.05;66.10;101106.31;5028046;28;20041;-70
2023/10/03 07:19:01;;;;;;;2.67;0.63;;;;;;;23.74;67.38;101118.88;5028038;28;20405;-71
2023/10/03 07:21:27;;;;;;;1.48;0.80;;;;;;;24.07;66.16;101124.91;5012257;28;20025;-70
2023/10/03 07:23:53;;;;;;;1.80;0.65;;;;;;;24.67;62.98;101123.81;5028276;28;20042;-70
2023/10/03 07:26:18;;;;;;;3.78;0.88;;;;;;;24.10;64.58;101125.59;5028664;28;20156;-70
2023/10/03 07:28:44;;;;;;;2.35;0.73;;;;;;;23.94;65.95;101140.84;5012086;28;20495;-71
2023/10/03 07:31:12;;;;;;;2.30;0.70;;;;;;;24.76;61.76;101128.56;5028521;28;20034;-70
2023/10/03 07:33:38;;;;;;;0.63;0.52;;;;;;;24.26;62.76;101145.97;5011260;28;20022;-71
2023/10/03 07:36:05;;;;;;;3.55;1.08;;;;;;;24.39;62.71;101149.59;5029065;28;20028;-70
2023/10/03 07:38:31;;;;;;;2.38;0.50;;;;;;;24.18;62.62;101158.00;5011035;28;20029;-70
2023/10/03 07:40:56;;;;;;;2.65;0.63;;;;;;;23.80;63.66;101150.50;5011297;28;20090;-71
2023/10/03 07:43:21;;;;;;;0.85;0.50;;;;;;;23.50;65.01;101164.72;5012008;28;20021;-71
2023/10/03 07:45:47;;;;;;;2.03;0.30;;;;;;;24.17;62.38;101185.66;5011279;28;20028;-70
2023/10/03 07:48:13;;;;;;;1.55;0.60;;;;;;;23.72;63.15;101196.31;5011524;28;20032;-70
2023/10/03 07:50:38;;;;;;;0.75;0.43;;;;;;;24.69;59.78;101199.41;5027450;28;20377;-71
2023/10/03 07:53:12;;;;;;;2.17;0.85;;;;;;;24.66;59.27;101215.63;5027932;28;20553;-71
2023/10/03 07:55:41;;;;;;;1.40;0.50;;;;;;;24.61;59.34;101231.06;5011696;28;20033;-68
2023/10/03 07:58:07;;;;;;;3.55;0.77;;;;;;;23.94;60.88;101231.59;5028368;28;20030;-68
2023/10/03 08:00:34;;;;;;;5.30;0.68;;;;;;;24.20;59.83;101224.66;5011488;28;20375;-68
2023/10/03 08:03:00;;;;;;;2.55;0.45;;;;;;;24.56;58.90;101228.66;5029236;28;20017;-69
2023/10/03 08:05:27;;;;;;;4.55;0.50;;;;;;;23.85;58.82;101233.84;5028902;28;20067;-68
2023/10/03 08:07:54;;;;;;;3.65;0.52;;;;;;;24.54;56.90;101238.63;5029640;28;20022;-70
2023/10/03 08:10:19;;;;;;;7.35;0.90;;;;;;;24.67;55.82;101246.72;5015546;28;20027;-70
2023/10/03 08:12:47;;;;;;;5.20;0.90;;;;;;;25.28;54.55;101257.97;5031816;28;20481;-70
2023/10/03 08:15:19;;;;;;;2.63;0.73;;;;;;;24.22;56.58;101263.69;5015044;28;20091;-70
2023/10/03 08:17:49;;;;;;;9.23;0.60;;;;;;;24.28;57.00;101272.28;5033377;28;20026;-70
2023/10/03 08:20:15;;;;;;;3.33;0.50;;;;;;;24.47;55.39;101278.19;5014522;28;20021;-70
2023/10/03 08:22:42;;;;;;;4.82;0.57;;;;;;;23.75;57.97;101306.53;5015365;28;20401;-70
2023/10/03 08:25:09;;;;;;;0.98;0.30;;;;;;;23.63;59.63;101313.41;5014579;28;20049;-70
2023/10/03 08:27:34;;;;;;;1.30;0.68;;;;;;;23.53;60.50;101316.63;5014652;28;20112;-70
2023/10/03 08:30:01;;;;;;;0.60;0.55;;;;;;;23.09;60.86;101333.25;5032509;28;20108;-70
2023/10/03 08:32:26;;;;;;;1.25;0.50;;;;;;;23.07;61.38;101337.84;5030974;28;20144;-70
2023/10/03 08:34:52;;;;;;;2.30;0.20;;;;;;;23.83;59.86;101341.63;5013874;28;20109;-70
2023/10/03 08:37:24;;;;;;;3.95;0.35;;;;;;;23.59;60.43;101349.22;5032144;28;20067;-70
2023/10/03 08:39:51;;;;;;;1.25;0.28;;;;;;;21.80;66.71;101370.94;5030849;28;20021;-70
2023/10/03 08:42:19;;;;;;;1.52;0.35;;;;;;;23.14;62.46;101352.56;5033333;28;20025;-70
2023/10/03 08:44:53;;;;;;;2.67;0.45;;;;;;;21.97;65.76;101356.81;5032880;28;20026;-71
2023/10/03 08:47:30;;;;;;;3.67;0.40;;;;;;;22.83;63.74;101351.56;5014425;28;20548;-70
2023/10/03 08:50:14;;;;;;;2.85;0.38;;;;;;;23.46;60.66;101352.59;5031029;28;20022;-71
2023/10/03 08:52:47;;;;;;;2.17;0.40;;;;;;;23.55;61.54;101354.75;5014267;28;20036;-71
2023/10/03 08:55:14;;;;;;;0.20;0.20;;;;;;;23.72;59.66;101376.94;5031222;28;20112;-70
2023/10/03 08:57:40;;;;;;;1.95;0.40;;;;;;;24.53;57.35;101382.00;5031297;28;20026;-70
2023/10/03 09:00:09;;;;;;;1.38;0.50;;;;;;;24.71;57.35;101381.88;5030926;28;20030;-69
2023/10/03 09:02:45;;;;;;;2.10;0.32;;;;;;;24.63;56.13;101384.16;5031617;28;20030;-70
2023/10/03 09:05:19;;;;;;;4.10;0.82;;;;;;;24.69;56.98;101405.19;5032005;28;20029;-71
2023/10/03 09:07:45;;;;;;;2.88;0.50;;;;;;;24.00;59.33;101407.41;5030578;28;20036;-70
2023/10/03 09:10:22;;;;;;;2.53;0.30;;;;;;;23.45;60.99;101404.22;5013515;28;20049;-69
2023/10/03 09:13:04;;;;;;;1.20;0.20;;;;;;;24.05;59.46;101405.34;5031224;28;20025;-69
2023/10/03 09:15:38;;;;;;;2.85;0.32;;;;;;;23.53;60.80;101418.00;5031530;28;20025;-69
2023/10/03 09:18:15;;;;;;;4.15;0.70;;;;;;;23.33;61.96;101421.75;5030078;28;20029;-69
2023/10/03 09:20:42;;;;;;;1.15;0.40;;;;;;;23.83;60.68;101427.88;5032060;28;20025;-69
2023/10/03 09:23:08;;;;;;;4.10;0.70;;;;;;;23.76;59.54;101444.34;5029288;28;20021;-69
2023/10/03 09:25:35;;;;;;;3.13;0.40;;;;;;;23.91;59.20;101451.50;5026721;28;20032;-67
2023/10/03 09:28:07;;;;;;;4.70;1.00;;;;;;;23.94;59.48;101450.50;5011762;28;20062;-67
2023/10/03 09:30:40;;;;;;;4.32;0.52;;;;;;;24.29;57.50;101466.28;5009972;28;20393;-69
2023/10/03 09:33:11;;;;;;;2.05;0.55;;;;;;;22.93;60.54;101484.28;5010570;28;20022;-68
2023/10/03 09:35:39;;;;;;;1.25;0.50;;;;;;;22.73;62.05;101483.53;5010814;28;20054;-68
2023/10/03 09:38:08;;;;;;;0.73;0.40;;;;;;;22.30;62.51;101480.34;5009480;28;20386;-69
2023/10/03 09:40:51;;;;;;;4.07;0.50;;;;;;;22.33;63.88;101483.69;5012051;28;20022;-69
2023/10/03 09:43:27;;;;;;;0.55;0.40;;;;;;;22.46;63.60;101493.75;5018604;28;20026;-69
2023/10/03 09:45:56;;;;;;;2.15;0.30;;;;;;;23.04;61.05;101503.28;5009446;28;20030;-68
2023/10/03 09:48:24;;;;;;;1.92;0.30;;;;;;;23.58;57.88;101502.28;4994050;28;20121;-69
2023/10/03 09:50:55;;;;;;;3.50;0.50;;;;;;;23.54;59.64;101502.41;5009724;28;20050;-69
2023/10/03 09:53:30;;;;;;;0.57;0.40;;;;;;;23.35;60.21;101502.53;4994256;28;20026;-69
2023/10/03 09:55:56;;;;;;;3.20;0.28;;;;;;;23.17;59.71;101507.03;5011166;28;20026;-69
2023/10/03 09:58:25;;;;;;;4.07;0.40;;;;;;;23.57;58.25;101506.72;4992996;28;20021;-69
2023/10/03 10:00:55;;;;;;;3.03;0.25;;;;;;;23.76;58.61;101516.41;5011974;28;20088;-69
2023/10/03 10:03:38;;;;;;;4.18;0.40;;;;;;;24.41;57.50;101519.00;5019225;28;20037;-68
2023/10/03 10:06:28;;;;;;;1.73;0.65;;;;;;;23.79;59.30;101516.22;5011728;28;20367;-67
2023/10/03 10:09:02;;;;;;;3.58;0.50;;;;;;;22.50;62.66;101514.88;5030797;28;20033;-68
2023/10/03 10:11:30;;;;;;;2.00;0.50;;;;;;;21.37;66.21;101511.22;5029205;28;20352;-69
2023/10/03 10:14:16;;;;;;;1.42;0.30;;;;;;;22.39;64.25;101526.97;5029218;28;20021;-68
2023/10/03 10:17:03;;;;;;;1.17;0.55;;;;;;;23.19;61.12;101530.94;5013333;28;20156;-68
2023/10/03 10:20:06;;;;;;;4.05;0.50;;;;;;;22.56;63.87;101531.47;5030460;28;20042;-68
2023/10/03 10:23:02;;;;;;;3.80;0.50;;;;;;;22.86;62.73;101537.94;5028804;28;20092;-69
2023/10/03 10:25:31;;;;;;;3.10;0.65;;;;;;;22.48;62.75;101537.19;5030246;28;20036;-68
2023/10/03 10:28:05;;;;;;;4.03;0.90;;;;;;;23.38;60.53;101555.75;5012714;28;20111;-68
2023/10/03 10:30:31;;;;;;;3.03;0.63;;;;;;;22.49;61.95;101563.75;5012532;28;20033;-69
2023/10/03 10:33:18;;;;;;;2.85;0.90;;;;;;;23.79;59.01;101558.94;5028157;28;20025;-68
2023/10/03 10:36:03;;;;;;;1.48;0.77;;;;;;;23.48;59.24;101566.78;5029323;28;20036;-68
2023/10/03 10:38:31;;;;;;;5.53;0.77;;;;;;;23.96;58.15;101560.69;5030747;28;20093;-68
2023/10/03 10:41:12;;;;;;;4.80;1.20;;;;;;;23.31;59.75;101577.47;5028013;28;20040;-68
2023/10/03 10:44:15;;;;;;;7.22;0.60;;;;;;;24.03;56.67;101578.13;5009641;28;20033;-68
2023/10/03 10:46:44;;;;;;;6.13;1.05;;;;;;;23.93;56.80;101588.41;4992437;28;20029;-68
2023/10/03 10:49:31;;;;;;;3.63;0.98;;;;;;;23.18;59.89;101602.09;4992327;28;20537;-68
2023/10/03 10:52:09;;;;;;;0.90;0.70;;;;;;;22.54;63.10;101606.13;4992729;28;20122;-69
2023/10/03 10:54:39;;;;;;;9.88;1.80;;;;;;;22.91;61.10;101611.47;5008555;28;20075;-69
2023/10/03 10:57:06;;;;;;;4.88;1.30;;;;;;;23.00;61.09;101619.84;4994992;28;20493;-69
2023/10/03 10:59:36;;;;;;;6.53;1.10;;;;;;;22.04;63.79;101639.50;5029146;28;20116;-69
2023/10/03 11:02:06;;;;;;;2.97;1.17;;;;;;;21.93;63.90;101641.78;5011330;28;20030;-70
2023/10/03 11:04:35;;;;;;;3.50;0.98;;;;;;;22.52;62.36;101640.84;5012454;28;20022;-69
2023/10/03 11:07:01;;;;;;;6.15;1.45;;;;;;;21.90;63.94;101663.19;5011834;28;20026;-69
2023/10/03 11:09:27;;;;;;;4.35;1.00;;;;;;;22.07;62.61;101663.31;5029221;28;20075;-69
2023/10/03 11:11:52;;;;;;;4.78;0.98;;;;;;;21.58;64.52;101665.47;5011791;28;20394;-69
2023/10/03 11:14:25;;;;;;;2.13;0.98;;;;;;;21.29;64.09;101672.88;5029694;28;20064;-69
2023/10/03 11:16:51;;;;;;;4.35;1.30;;;;;;;21.72;63.71;101681.72;5026642;28;20037;-69
2023/10/03 11:19:17;;;;;;;6.25;1.25;;;;;;;22.62;61.12;101677.69;5012300;28;20029;-69
2023/10/03 11:21:42;;;;;;;5.90;1.42;;;;;;;21.75;63.51;101686.00;5028944;28;20063;-69
2023/10/03 11:24:15;;;;;;;1.77;0.70;;;;;;;22.33;62.21;101687.88;5011600;28;20045;-69
2023/10/03 11:26:47;;;;;;;6.18;1.17;;;;;;;21.23;66.10;101691.75;5012210;28;20061;-69
2023/10/03 11:29:15;;;;;;;1.33;0.90;;;;;;;20.98;68.06;101701.56;5011135;28;20498;-68
2023/10/03 11:31:41;;;;;;;2.70;0.57;;;;;;;21.19;66.48;101705.13;5012227;28;20068;-69
2023/10/03 11:34:07;;;;;;;2.30;1.13;;;;;;;20.94;65.92;101699.09;5028456;28;20042;-69